createdAt,value
2022-12-29T00:00:14.759Z,100.00
2022-12-29T00:02:49.215Z,100.00
2022-12-29T00:05:15.869Z,99.67
2022-12-29T00:07:42.273Z,99.68
2022-12-29T00:10:09.202Z,99.29
2022-12-29T00:12:54.300Z,98.75
2022-12-29T00:15:39.455Z,99.06
2022-12-29T00:18:07.048Z,98.93
2022-12-29T00:20:56.052Z,98.52
2022-12-29T00:23:41.821Z,98.36
2022-12-29T00:26:35.795Z,97.83
2022-12-29T00:29:20.865Z,98.36
2022-12-29T00:32:05.785Z,98.27
2022-12-29T00:34:51.127Z,97.69
2022-12-29T00:37:18.106Z,97.60
2022-12-29T00:40:03.103Z,97.35
2022-12-29T00:42:47.982Z,98.06
2022-12-29T00:45:14.780Z,97.87
2022-12-29T00:47:41.204Z,96.63
2022-12-29T00:50:08.133Z,96.27
2022-12-29T00:52:34.642Z,96.43
2022-12-29T00:55:01.179Z,96.82
2022-12-29T00:57:27.709Z,96.74
2022-12-29T00:59:54.199Z,97.16
2022-12-29T01:02:20.767Z,96.13
2022-12-29T01:04:47.299Z,97.11
2022-12-29T01:07:15.177Z,97.58
2022-12-29T01:10:00.492Z,97.78
2022-12-29T01:12:42.130Z,98.19
2022-12-29T01:15:10.952Z,97.65
2022-12-29T01:17:37.537Z,98.33
2022-12-29T01:20:04.891Z,99.18
2022-12-29T01:22:31.375Z,100.00
2022-12-29T01:24:57.912Z,100.00
2022-12-29T01:27:24.481Z,100.00
2022-12-29T01:29:50.933Z,100.00
2022-12-29T01:32:17.539Z,100.00
2022-12-29T01:34:44.875Z,100.00
2022-12-29T01:37:11.987Z,100.00
2022-12-29T01:39:38.643Z,100.00
2022-12-29T01:42:05.124Z,100.00
2022-12-29T01:44:50.200Z,100.00
2022-12-29T01:47:23.779Z,100.00
2022-12-29T01:50:02.161Z,100.00
2022-12-29T01:52:33.021Z,100.00
2022-12-29T01:55:02.802Z,100.00
2022-12-29T01:57:34.312Z,100.00
2022-12-29T02:00:09.464Z,100.00
2022-12-29T02:02:36.779Z,100.00
2022-12-29T02:05:12.535Z,100.00
2022-12-29T02:07:40.108Z,100.00
2022-12-29T02:10:07.282Z,100.00
2022-12-29T02:12:34.711Z,100.00
2022-12-29T02:15:02.652Z,100.00
2022-12-29T02:17:50.053Z,100.00
2022-12-29T02:20:35.410Z,100.00
2022-12-29T02:23:26.077Z,100.00
2022-12-29T02:26:29.010Z,100.00
2022-12-29T02:29:10.662Z,100.00
2022-12-29T02:32:06.460Z,100.00
2022-12-29T02:34:54.669Z,100.00
2022-12-29T02:37:28.118Z,100.00
2022-12-29T02:40:06.901Z,100.00
2022-12-29T02:42:44.240Z,100.00
2022-12-29T02:45:31.757Z,100.00
2022-12-29T02:48:32.488Z,100.00
2022-12-29T02:51:05.493Z,100.00
2022-12-29T02:53:54.135Z,100.00
2022-12-29T02:56:20.745Z,100.00
2022-12-29T02:58:47.544Z,100.00
2022-12-29T03:01:34.630Z,100.00
2022-12-29T03:04:35.276Z,100.00
2022-12-29T03:07:15.934Z,100.00
2022-12-29T03:10:08.968Z,100.00
2022-12-29T03:13:16.475Z,100.00
2022-12-29T03:16:05.892Z,100.00
2022-12-29T03:18:41.027Z,100.00
2022-12-29T03:21:44.595Z,100.00
2022-12-29T03:24:12.143Z,100.00
2022-12-29T03:26:41.371Z,100.00
2022-12-29T03:29:09.637Z,100.00
2022-12-29T03:31:38.532Z,100.00
2022-12-29T03:34:07.605Z,100.00
2022-12-29T03:36:48.657Z,100.00
2022-12-29T03:39:15.186Z,100.00
2022-12-29T03:41:45.506Z,100.00
2022-12-29T03:44:13.916Z,100.00
2022-12-29T03:46:41.687Z,100.00
2022-12-29T03:49:09.105Z,100.00
2022-12-29T03:51:36.671Z,100.00
2022-12-29T03:54:04.073Z,100.00
2022-12-29T03:56:30.548Z,100.00
2022-12-29T03:58:57.004Z,100.00
2022-12-29T04:01:23.610Z,100.00
2022-12-29T04:03:51.182Z,100.00
2022-12-29T04:06:17.749Z,100.00
2022-12-29T04:08:44.274Z,100.00
2022-12-29T04:11:10.734Z,100.00
2022-12-29T04:13:37.286Z,100.00
2022-12-29T04:16:03.981Z,100.00
2022-12-29T04:18:30.505Z,100.00
2022-12-29T04:21:04.471Z,100.00
2022-12-29T04:23:33.799Z,100.00
2022-12-29T04:26:00.551Z,99.82
2022-12-29T04:28:27.375Z,98.30
2022-12-29T04:30:54.459Z,98.38
2022-12-29T04:33:22.200Z,98.46
2022-12-29T04:35:48.834Z,97.90
2022-12-29T04:38:16.237Z,96.61
2022-12-29T04:40:44.823Z,96.37
2022-12-29T04:43:12.315Z,96.25
2022-12-29T04:45:40.248Z,94.33
2022-12-29T04:48:06.841Z,94.86
2022-12-29T04:50:33.301Z,94.60
2022-12-29T04:52:59.745Z,94.40
2022-12-29T04:55:26.342Z,94.57
2022-12-29T04:57:52.818Z,94.79
2022-12-29T05:00:19.386Z,93.89
2022-12-29T05:02:46.379Z,94.28
2022-12-29T05:05:13.230Z,93.18
2022-12-29T05:07:41.342Z,92.74
2022-12-29T05:10:08.865Z,93.75
2022-12-29T05:12:37.318Z,93.24
2022-12-29T05:15:05.944Z,94.03
2022-12-29T05:17:33.080Z,94.22
2022-12-29T05:19:59.993Z,93.33
2022-12-29T05:22:26.562Z,92.59
2022-12-29T05:24:53.000Z,91.84
2022-12-29T05:27:20.037Z,93.49
2022-12-29T05:29:46.465Z,92.67
2022-12-29T05:32:12.943Z,92.26
2022-12-29T05:34:39.408Z,93.01
2022-12-29T05:37:05.908Z,93.01
2022-12-29T05:39:32.592Z,92.56
2022-12-29T05:41:59.302Z,92.35
2022-12-29T05:44:25.905Z,92.51
2022-12-29T05:46:52.509Z,92.12
2022-12-29T05:49:19.585Z,92.30
2022-12-29T05:51:47.035Z,92.10
2022-12-29T05:54:14.580Z,91.95
2022-12-29T05:56:41.040Z,91.71
2022-12-29T05:59:07.926Z,90.77
2022-12-29T06:01:35.390Z,91.72
2022-12-29T06:04:02.371Z,90.72
2022-12-29T06:06:28.942Z,91.05
2022-12-29T06:08:55.567Z,90.29
2022-12-29T06:11:21.983Z,90.10
2022-12-29T06:13:48.423Z,91.29
2022-12-29T06:16:14.993Z,90.50
2022-12-29T06:18:41.489Z,91.36
2022-12-29T06:21:08.049Z,92.03
2022-12-29T06:23:34.561Z,91.63
2022-12-29T06:26:01.031Z,91.10
2022-12-29T06:28:27.510Z,91.73
2022-12-29T06:30:54.092Z,92.44
2022-12-29T06:33:21.788Z,93.62
2022-12-29T06:35:48.256Z,93.71
2022-12-29T06:38:14.708Z,94.43
2022-12-29T06:40:44.013Z,94.76
2022-12-29T06:43:11.779Z,95.70
2022-12-29T06:45:41.970Z,95.54
2022-12-29T06:48:08.841Z,94.26
2022-12-29T06:50:35.708Z,94.42
2022-12-29T06:53:05.812Z,93.90
2022-12-29T06:55:32.970Z,93.13
2022-12-29T06:58:00.715Z,93.26
2022-12-29T07:00:27.428Z,92.12
2022-12-29T07:02:56.406Z,89.31
2022-12-29T07:05:23.217Z,89.71
2022-12-29T07:07:49.644Z,89.47
2022-12-29T07:10:16.594Z,89.29
2022-12-29T07:12:44.113Z,90.27
2022-12-29T07:15:11.642Z,92.66
2022-12-29T07:17:40.976Z,93.89
2022-12-29T07:20:08.981Z,95.44
2022-12-29T07:22:35.829Z,95.95
2022-12-29T07:25:03.453Z,96.70
2022-12-29T07:27:30.302Z,97.45
2022-12-29T07:29:56.919Z,98.22
2022-12-29T07:32:33.124Z,99.05
2022-12-29T07:34:59.815Z,99.79
2022-12-29T07:37:26.199Z,100.00
2022-12-29T07:39:52.836Z,100.00
2022-12-29T07:42:19.903Z,100.00
2022-12-29T07:44:46.608Z,100.00
2022-12-29T07:47:15.104Z,99.94
2022-12-29T07:49:42.636Z,100.00
2022-12-29T07:52:09.483Z,100.00
2022-12-29T07:54:36.690Z,99.90
2022-12-29T07:57:03.269Z,99.27
2022-12-29T07:59:29.733Z,98.22
2022-12-29T08:02:00.150Z,97.70
2022-12-29T08:04:26.998Z,97.71
2022-12-29T08:06:58.454Z,97.51
2022-12-29T08:09:25.106Z,96.91
2022-12-29T08:14:33.691Z,95.17
2022-12-29T08:17:00.245Z,94.19
2022-12-29T08:19:26.746Z,92.76
2022-12-29T08:21:53.961Z,91.63
2022-12-29T08:24:20.568Z,91.53
2022-12-29T08:26:47.391Z,91.83
2022-12-29T08:29:13.918Z,91.83
2022-12-29T08:31:42.229Z,90.44
2022-12-29T08:34:08.801Z,88.20
2022-12-29T08:36:35.495Z,88.06
2022-12-29T08:39:02.011Z,87.87
2022-12-29T08:41:28.648Z,88.03
2022-12-29T08:43:55.132Z,87.94
2022-12-29T08:46:22.198Z,87.26
2022-12-29T08:48:48.903Z,87.60
2022-12-29T08:51:20.156Z,86.16
2022-12-29T08:53:49.572Z,87.45
2022-12-29T08:56:16.580Z,88.43
2022-12-29T08:58:43.434Z,89.87
2022-12-29T09:01:11.166Z,89.46
2022-12-29T09:04:13.049Z,90.16
2022-12-29T09:06:24.438Z,90.00
2022-12-29T09:08:51.049Z,89.15
2022-12-29T09:11:21.649Z,89.97
2022-12-29T09:13:49.612Z,90.73
2022-12-29T09:16:16.808Z,89.70
2022-12-29T09:18:44.292Z,90.05
2022-12-29T09:21:12.184Z,90.25
2022-12-29T09:23:38.784Z,90.78
2022-12-29T09:26:05.503Z,91.31
2022-12-29T09:31:36.348Z,92.77
2022-12-29T09:34:03.334Z,94.35
2022-12-29T09:36:30.997Z,95.89
2022-12-29T09:38:57.884Z,95.69
2022-12-29T09:41:37.060Z,96.04
2022-12-29T09:44:14.245Z,96.84
2022-12-29T09:46:50.981Z,98.86
2022-12-29T09:49:54.015Z,100.00
2022-12-29T09:56:14.602Z,100.00
2022-12-29T09:59:03.980Z,100.00
2022-12-29T10:01:45.418Z,100.00
2022-12-29T10:04:13.498Z,100.00
2022-12-29T10:07:27.935Z,100.00
2022-12-29T10:10:27.528Z,100.00
2022-12-29T10:13:32.241Z,100.00
2022-12-29T10:16:13.925Z,100.00
2022-12-29T10:19:02.659Z,100.00
2022-12-29T10:22:11.294Z,100.00
2022-12-29T10:24:40.143Z,100.00
2022-12-29T10:27:12.837Z,100.00
2022-12-29T10:29:46.813Z,100.00
2022-12-29T10:32:23.491Z,100.00
2022-12-29T10:35:19.892Z,100.00
2022-12-29T10:37:57.642Z,100.00
2022-12-29T10:41:12.839Z,100.00
2022-12-29T10:46:41.692Z,100.00
2022-12-29T10:49:21.572Z,100.00
2022-12-29T10:51:53.634Z,100.00
2022-12-29T10:54:41.322Z,100.00
2022-12-29T10:57:38.697Z,100.00
2022-12-29T11:00:22.586Z,100.00
2022-12-29T11:03:11.205Z,100.00
2022-12-29T11:05:59.120Z,100.00
2022-12-29T11:08:29.045Z,100.00
2022-12-29T11:11:06.001Z,100.00
2022-12-29T11:13:47.681Z,100.00
2022-12-29T11:16:14.597Z,100.00
2022-12-29T11:18:47.280Z,100.00
2022-12-29T11:21:43.443Z,100.00
2022-12-29T11:24:44.865Z,100.00
2022-12-29T11:27:24.950Z,100.00
2022-12-29T11:29:57.126Z,100.00
2022-12-29T11:32:29.431Z,100.00
2022-12-29T11:34:59.891Z,100.00
2022-12-29T11:37:47.810Z,100.00
2022-12-29T11:40:48.527Z,100.00
2022-12-29T11:44:06.679Z,100.00
2022-12-29T11:46:39.605Z,100.00
2022-12-29T11:49:07.133Z,100.00
2022-12-29T11:51:48.505Z,100.00
2022-12-29T11:54:32.574Z,100.00
2022-12-29T11:57:10.186Z,99.31
2022-12-29T12:00:27.454Z,98.86
2022-12-29T12:03:25.394Z,99.73
2022-12-29T12:07:06.291Z,98.50
2022-12-29T12:09:38.017Z,97.95
2022-12-29T12:12:08.123Z,99.34
2022-12-29T12:15:37.956Z,99.74
2022-12-29T12:22:50.793Z,100.00
2022-12-29T12:25:50.956Z,100.00
2022-12-29T12:28:46.839Z,100.00
2022-12-29T12:31:46.038Z,100.00
2022-12-29T12:42:21.983Z,98.59
2022-12-29T12:45:59.758Z,98.03
2022-12-29T12:49:10.207Z,97.85
2022-12-29T12:52:29.941Z,97.10
2022-12-29T12:58:54.417Z,96.13
2022-12-29T12:59:09.473Z,94.56
2022-12-29T13:06:16.849Z,94.84
2022-12-29T13:09:00.192Z,94.59
2022-12-29T13:11:41.873Z,95.29
2022-12-29T13:14:50.264Z,94.84
2022-12-29T13:25:04.918Z,93.60
2022-12-29T13:28:57.860Z,94.44
2022-12-29T13:49:00.364Z,93.79
2022-12-29T13:51:36.413Z,93.95
2022-12-29T13:54:48.034Z,94.61
2022-12-29T13:57:49.429Z,94.33
2022-12-29T14:03:42.622Z,94.47
2022-12-29T14:07:07.507Z,94.22
2022-12-29T14:09:52.890Z,94.92
2022-12-29T14:13:05.231Z,94.91
2022-12-29T14:15:45.460Z,95.52
2022-12-29T14:18:22.557Z,95.69
2022-12-29T14:24:36.015Z,96.44
2022-12-29T14:30:58.069Z,97.15
2022-12-29T14:33:29.884Z,97.56
2022-12-29T14:36:01.079Z,96.45
2022-12-29T14:38:34.134Z,96.53
2022-12-29T14:41:21.089Z,97.42
2022-12-29T14:44:03.174Z,98.49
2022-12-29T14:46:54.962Z,99.26
2022-12-29T14:49:24.260Z,99.47
2022-12-29T14:51:53.945Z,99.68
2022-12-29T14:54:32.492Z,100.00
2022-12-29T14:57:25.503Z,100.00
2022-12-29T14:59:57.471Z,100.00
2022-12-29T15:02:28.864Z,100.00
2022-12-29T15:05:00.927Z,100.00
2022-12-29T15:07:30.172Z,100.00
2022-12-29T15:10:06.840Z,100.00
2022-12-29T15:12:42.398Z,100.00
2022-12-29T15:15:26.069Z,100.00
2022-12-29T15:17:54.666Z,100.00
2022-12-29T15:20:21.310Z,100.00
2022-12-29T15:23:38.707Z,100.00
2022-12-29T15:26:09.832Z,100.00
2022-12-29T15:28:47.926Z,100.00
2022-12-29T15:31:30.744Z,100.00
2022-12-29T15:34:15.410Z,100.00
2022-12-29T15:36:48.596Z,100.00
2022-12-29T15:39:27.013Z,100.00
2022-12-29T15:42:17.750Z,100.00
2022-12-29T15:44:45.291Z,100.00
2022-12-29T15:47:20.250Z,100.00
2022-12-29T15:49:57.583Z,100.00
2022-12-29T15:52:42.480Z,100.00
2022-12-29T15:58:48.547Z,99.32
2022-12-29T16:01:40.027Z,100.00
2022-12-29T16:04:10.836Z,98.89
2022-12-29T16:06:45.161Z,99.57
2022-12-29T16:09:21.412Z,100.00
2022-12-29T16:11:57.786Z,99.36
2022-12-29T16:14:38.847Z,99.13
2022-12-29T16:17:05.754Z,99.62
2022-12-29T16:19:39.375Z,98.73
2022-12-29T16:22:13.121Z,98.80
2022-12-29T16:24:41.044Z,99.04
2022-12-29T16:27:11.062Z,97.64
2022-12-29T16:29:44.019Z,97.34
2022-12-29T16:32:35.391Z,96.44
2022-12-29T16:35:14.195Z,97.04
2022-12-29T16:37:41.063Z,96.70
2022-12-29T16:40:39.968Z,96.96
2022-12-29T16:43:26.673Z,95.32
2022-12-29T16:46:03.250Z,95.76
2022-12-29T16:48:32.470Z,95.38
2022-12-29T16:51:42.380Z,96.04
2022-12-29T16:54:23.215Z,95.73
2022-12-29T16:56:55.510Z,94.58
2022-12-29T16:59:38.999Z,95.18
2022-12-29T17:02:15.688Z,94.91
2022-12-29T17:04:42.376Z,94.86
2022-12-29T17:07:21.473Z,95.70
2022-12-29T17:09:48.462Z,95.46
2022-12-29T17:12:19.782Z,95.77
2022-12-29T17:14:53.921Z,95.39
2022-12-29T17:17:29.434Z,94.96
2022-12-29T17:20:00.818Z,95.51
2022-12-29T17:22:33.934Z,95.24
2022-12-29T17:25:02.860Z,95.44
2022-12-29T17:27:29.761Z,95.16
2022-12-29T17:30:14.756Z,95.23
2022-12-29T17:32:44.385Z,95.29
2022-12-29T17:35:15.879Z,95.58
2022-12-29T17:37:42.968Z,95.02
2022-12-29T17:40:16.444Z,94.96
2022-12-29T17:42:48.860Z,94.69
2022-12-29T17:45:18.860Z,94.30
2022-12-29T17:47:45.482Z,94.33
2022-12-29T17:50:18.974Z,94.47
2022-12-29T17:52:51.897Z,94.10
2022-12-29T17:55:21.372Z,93.86
2022-12-29T17:57:49.114Z,94.40
2022-12-29T18:00:18.369Z,94.39
2022-12-29T18:02:45.881Z,94.98
2022-12-29T18:05:20.802Z,94.20
2022-12-29T18:07:48.295Z,94.16
2022-12-29T18:10:15.930Z,93.74
2022-12-29T18:13:45.974Z,93.63
2022-12-29T18:16:13.993Z,93.31
2022-12-29T18:18:41.992Z,93.99
2022-12-29T18:21:15.719Z,93.40
2022-12-29T18:23:42.290Z,93.13
2022-12-29T18:26:18.531Z,93.18
2022-12-29T18:28:50.651Z,92.66
2022-12-29T18:31:21.914Z,93.06
2022-12-29T18:33:50.262Z,92.35
2022-12-29T18:36:18.231Z,92.85
2022-12-29T18:38:45.662Z,93.18
2022-12-29T18:41:18.190Z,92.78
2022-12-29T18:43:45.734Z,92.81
2022-12-29T18:46:23.068Z,93.21
2022-12-29T18:48:50.872Z,93.55
2022-12-29T18:51:20.468Z,92.89
2022-12-29T18:53:47.554Z,93.65
2022-12-29T18:56:17.099Z,93.25
2022-12-29T18:58:43.612Z,92.83
2022-12-29T19:01:20.083Z,93.36
2022-12-29T19:03:47.784Z,93.54
2022-12-29T19:06:14.933Z,93.36
2022-12-29T19:08:41.484Z,93.73
2022-12-29T19:11:08.489Z,93.52
2022-12-29T19:13:34.979Z,93.26
2022-12-29T19:16:01.775Z,93.63
2022-12-29T19:18:47.446Z,93.68
2022-12-29T19:21:15.403Z,93.61
2022-12-29T19:23:45.128Z,94.05
2022-12-29T19:26:29.794Z,94.04
2022-12-29T19:28:56.299Z,94.31
2022-12-29T19:31:22.964Z,94.06
2022-12-29T19:36:42.825Z,94.82
2022-12-29T19:39:09.461Z,94.53
2022-12-29T19:41:36.060Z,94.91
2022-12-29T19:44:03.412Z,94.61
2022-12-29T19:46:30.073Z,94.45
2022-12-29T19:48:59.013Z,95.02
2022-12-29T19:51:26.952Z,95.59
2022-12-29T19:53:54.313Z,95.19
2022-12-29T19:56:21.175Z,94.99
2022-12-29T19:58:48.061Z,95.52
2022-12-29T20:01:18.215Z,95.27
2022-12-29T20:03:44.815Z,95.59
2022-12-29T20:06:12.090Z,95.73
2022-12-29T20:08:42.650Z,94.98
2022-12-29T20:11:14.958Z,95.71
2022-12-29T20:13:42.759Z,95.98
2022-12-29T20:16:20.603Z,95.30
2022-12-29T20:18:48.330Z,96.30
2022-12-29T20:21:18.110Z,96.27
2022-12-29T20:23:46.133Z,96.36
2022-12-29T20:26:15.363Z,96.11
2022-12-29T20:28:46.049Z,96.53
2022-12-29T20:31:20.323Z,97.12
2022-12-29T20:33:47.589Z,97.12
2022-12-29T20:36:20.661Z,97.34
2022-12-29T20:38:48.871Z,97.05
2022-12-29T20:41:16.865Z,96.90
2022-12-29T20:43:43.864Z,97.01
2022-12-29T20:46:11.710Z,97.02
2022-12-29T20:48:38.700Z,96.36
2022-12-29T20:51:05.453Z,96.45
2022-12-29T20:53:36.636Z,95.86
2022-12-29T20:56:16.447Z,96.10
2022-12-29T20:59:17.095Z,95.99
2022-12-29T21:01:30.120Z,95.70
2022-12-29T21:04:00.233Z,95.27
2022-12-29T21:06:27.477Z,95.06
2022-12-29T21:08:55.397Z,95.28
2022-12-29T21:11:26.003Z,94.90
2022-12-29T21:14:00.701Z,94.84
2022-12-29T21:16:29.417Z,94.93
2022-12-29T21:18:56.409Z,94.96
2022-12-29T21:21:25.422Z,94.32
2022-12-29T21:23:54.417Z,94.90
2022-12-29T21:26:23.564Z,94.64
2022-12-29T21:28:51.487Z,94.53
2022-12-29T21:31:32.764Z,94.51
2022-12-29T21:34:02.203Z,94.74
2022-12-29T21:36:29.426Z,94.68
2022-12-29T21:38:56.631Z,94.43
2022-12-29T21:41:23.740Z,95.18
2022-12-29T21:44:10.181Z,95.03
2022-12-29T21:46:41.090Z,95.09
2022-12-29T21:49:08.136Z,95.13
2022-12-29T21:51:53.335Z,95.77
2022-12-29T21:54:44.778Z,96.04
2022-12-29T21:57:33.629Z,95.91
2022-12-29T22:00:19.001Z,96.30
2022-12-29T22:03:04.543Z,95.82
2022-12-29T22:05:49.839Z,96.01
2022-12-29T22:08:37.609Z,96.63
2022-12-29T22:11:27.706Z,97.18
2022-12-29T22:13:56.416Z,96.46
2022-12-29T22:16:26.287Z,96.90
2022-12-29T22:18:53.892Z,96.89
2022-12-29T22:21:20.395Z,97.18
2022-12-29T22:23:47.688Z,96.89
2022-12-29T22:26:14.941Z,96.58
2022-12-29T22:28:43.965Z,97.24
2022-12-29T22:31:33.142Z,96.95
2022-12-29T22:34:03.722Z,97.37
2022-12-29T22:36:32.559Z,97.27
2022-12-29T22:38:59.365Z,97.30
2022-12-29T22:41:25.875Z,97.66
2022-12-29T22:43:52.602Z,97.26
2022-12-29T22:46:19.395Z,97.29
2022-12-29T22:48:46.689Z,97.14
2022-12-29T22:51:14.013Z,97.93
2022-12-29T22:53:41.853Z,97.83
2022-12-29T22:56:11.478Z,97.82
2022-12-29T22:58:48.921Z,98.09
2022-12-29T23:01:18.189Z,98.17
2022-12-29T23:03:45.363Z,97.48
2022-12-29T23:06:14.349Z,98.05
2022-12-29T23:08:40.813Z,98.33
2022-12-29T23:11:10.036Z,97.95
2022-12-29T23:25:20.962Z,97.67
2022-12-29T23:27:47.598Z,98.24
2022-12-29T23:30:14.251Z,98.19
2022-12-29T23:32:40.732Z,98.69
2022-12-29T23:35:08.563Z,98.17
2022-12-29T23:37:35.018Z,98.64
2022-12-29T23:40:01.507Z,98.97
2022-12-29T23:42:28.047Z,98.83
2022-12-29T23:44:54.601Z,99.14
2022-12-29T23:47:21.127Z,99.41
2022-12-29T23:49:47.629Z,99.20
2022-12-29T23:52:14.253Z,99.47
2022-12-29T23:54:40.704Z,99.49
2022-12-29T23:57:07.235Z,99.49
2022-12-29T23:59:33.738Z,99.90
